sensor_id;sensor_type;location;lat;lon;timestamp;pressure;altitude;pressure_sealevel;temperature;humidity
60715;BME280;46564;53.096;8.246;2022-07-29T00:01:52;57128.34;;;-147.53;100.00
60715;BME280;46564;53.096;8.246;2022-07-29T00:06:53;57128.34;;;-147.53;100.00
60715;BME280;46564;53.096;8.246;2022-07-29T00:11:58;57128.34;;;-147.53;100.00
60715;BME280;46564;53.096;8.246;2022-07-29T00:17:00;57128.34;;;-147.53;100.00
60715;BME280;46564;53.096;8.246;2022-07-29T00:22:02;57128.34;;;-147.53;100.00
60715;BME280;46564;53.096;8.246;2022-07-29T00:27:04;57128.34;;;-147.53;100.00
60715;BME280;46564;53.096;8.246;2022-07-29T00:32:05;57128.34;;;-147.53;100.00
60715;BME280;46564;53.096;8.246;2022-07-29T00:37:07;57128.34;;;-147.53;100.00
60715;BME280;46564;53.096;8.246;2022-07-29T00:42:08;57128.34;;;-147.53;100.00
60715;BME280;46564;53.096;8.246;2022-07-29T00:47:11;57128.34;;;-147.53;100.00
60715;BME280;46564;53.096;8.246;2022-07-29T00:52:13;57128.34;;;-147.53;100.00
60715;BME280;46564;53.096;8.246;2022-07-29T00:57:17;57128.34;;;-147.53;100.00
60715;BME280;46564;53.096;8.246;2022-07-29T01:02:19;57128.34;;;-147.53;100.00
60715;BME280;46564;53.096;8.246;2022-07-29T01:07:21;57128.34;;;-147.53;100.00
60715;BME280;46564;53.096;8.246;2022-07-29T01:12:27;57128.34;;;-147.53;100.00
60715;BME280;46564;53.096;8.246;2022-07-29T01:23:11;57128.34;;;-147.53;100.00
60715;BME280;46564;53.096;8.246;2022-07-29T01:33:42;57128.34;;;-147.53;100.00
60715;BME280;46564;53.096;8.246;2022-07-29T01:39:06;57128.34;;;-147.53;100.00
60715;BME280;46564;53.096;8.246;2022-07-29T01:44:22;57128.34;;;-147.53;100.00
60715;BME280;46564;53.096;8.246;2022-07-29T01:49:31;57128.34;;;-147.53;100.00
60715;BME280;46564;53.096;8.246;2022-07-29T01:54:39;57128.34;;;-147.53;100.00
60715;BME280;46564;53.096;8.246;2022-07-29T01:59:48;57128.34;;;-147.53;100.00
60715;BME280;46564;53.096;8.246;2022-07-29T02:04:53;57128.34;;;-147.53;100.00
60715;BME280;46564;53.096;8.246;2022-07-29T02:09:55;57128.34;;;-147.53;100.00
60715;BME280;46564;53.096;8.246;2022-07-29T02:15:00;57128.34;;;-147.53;100.00
60715;BME280;46564;53.096;8.246;2022-07-29T02:20:03;57128.34;;;-147.53;100.00
60715;BME280;46564;53.096;8.246;2022-07-29T02:25:09;57128.34;;;-147.53;100.00
60715;BME280;46564;53.096;8.246;2022-07-29T02:30:14;57128.34;;;-147.53;100.00
60715;BME280;46564;53.096;8.246;2022-07-29T02:35:16;57128.34;;;-147.53;100.00
60715;BME280;46564;53.096;8.246;2022-07-29T02:40:18;57128.34;;;-147.53;100.00
60715;BME280;46564;53.096;8.246;2022-07-29T02:45:20;57128.34;;;-147.53;100.00
60715;BME280;46564;53.096;8.246;2022-07-29T02:50:44;57128.34;;;-147.53;100.00
60715;BME280;46564;53.096;8.246;2022-07-29T02:55:53;57128.34;;;-147.53;100.00
60715;BME280;46564;53.096;8.246;2022-07-29T03:00:59;57128.34;;;-147.53;100.00
60715;BME280;46564;53.096;8.246;2022-07-29T03:06:03;57128.34;;;-147.53;100.00
60715;BME280;46564;53.096;8.246;2022-07-29T03:11:07;57128.34;;;-147.53;100.00
60715;BME280;46564;53.096;8.246;2022-07-29T03:16:09;57128.34;;;-147.53;100.00
60715;BME280;46564;53.096;8.246;2022-07-29T03:21:11;57128.34;;;-147.53;100.00
60715;BME280;46564;53.096;8.246;2022-07-29T03:26:13;57128.34;;;-147.53;100.00
60715;BME280;46564;53.096;8.246;2022-07-29T03:31:14;57128.34;;;-147.53;100.00
60715;BME280;46564;53.096;8.246;2022-07-29T03:36:16;57128.34;;;-147.53;100.00
60715;BME280;46564;53.096;8.246;2022-07-29T03:41:18;57128.34;;;-147.53;100.00
60715;BME280;46564;53.096;8.246;2022-07-29T03:46:23;57128.34;;;-147.53;100.00
60715;BME280;46564;53.096;8.246;2022-07-29T03:51:27;57128.34;;;-147.53;100.00
60715;BME280;46564;53.096;8.246;2022-07-29T03:56:38;57128.34;;;-147.53;100.00
60715;BME280;46564;53.096;8.246;2022-07-29T04:01:41;57128.34;;;-147.53;100.00
60715;BME280;46564;53.096;8.246;2022-07-29T04:06:44;57128.34;;;-147.53;100.00
60715;BME280;46564;53.096;8.246;2022-07-29T04:11:48;57128.34;;;-147.53;100.00
60715;BME280;46564;53.096;8.246;2022-07-29T04:17:04;57128.34;;;-147.53;100.00
60715;BME280;46564;53.096;8.246;2022-07-29T04:22:06;57128.34;;;-147.53;100.00
60715;BME280;46564;53.096;8.246;2022-07-29T04:27:07;57128.34;;;-147.53;100.00
60715;BME280;46564;53.096;8.246;2022-07-29T04:32:09;57128.34;;;-147.53;100.00
60715;BME280;46564;53.096;8.246;2022-07-29T04:37:10;57128.34;;;-147.53;100.00
60715;BME280;46564;53.096;8.246;2022-07-29T04:42:12;57128.34;;;-147.53;100.00
60715;BME280;46564;53.096;8.246;2022-07-29T04:47:14;57128.34;;;-147.53;100.00
60715;BME280;46564;53.096;8.246;2022-07-29T04:52:15;57128.34;;;-147.53;100.00
60715;BME280;46564;53.096;8.246;2022-07-29T04:57:17;57128.34;;;-147.53;100.00
60715;BME280;46564;53.096;8.246;2022-07-29T05:02:19;57128.34;;;-147.53;100.00
60715;BME280;46564;53.096;8.246;2022-07-29T05:07:20;57128.34;;;-147.53;100.00
60715;BME280;46564;53.096;8.246;2022-07-29T05:12:23;57128.34;;;-147.53;100.00
60715;BME280;46564;53.096;8.246;2022-07-29T05:17:25;57128.34;;;-147.53;100.00
60715;BME280;46564;53.096;8.246;2022-07-29T05:22:26;57128.34;;;-147.53;100.00
60715;BME280;46564;53.096;8.246;2022-07-29T05:27:28;57128.34;;;-147.53;100.00
60715;BME280;46564;53.096;8.246;2022-07-29T05:32:29;57128.34;;;-147.53;100.00
60715;BME280;46564;53.096;8.246;2022-07-29T05:37:31;57128.34;;;-147.53;100.00
60715;BME280;46564;53.096;8.246;2022-07-29T05:42:33;57128.34;;;-147.53;100.00
60715;BME280;46564;53.096;8.246;2022-07-29T05:47:35;57128.34;;;-147.53;100.00
60715;BME280;46564;53.096;8.246;2022-07-29T05:52:36;57128.34;;;-147.53;100.00
60715;BME280;46564;53.096;8.246;2022-07-29T05:57:38;57128.34;;;-147.53;100.00
60715;BME280;46564;53.096;8.246;2022-07-29T06:02:40;57128.34;;;-147.53;100.00
60715;BME280;46564;53.096;8.246;2022-07-29T06:07:41;57128.34;;;-147.53;100.00
60715;BME280;46564;53.096;8.246;2022-07-29T06:12:52;57128.34;;;-147.53;100.00
60715;BME280;46564;53.096;8.246;2022-07-29T06:17:53;57128.34;;;-147.53;100.00
60715;BME280;46564;53.096;8.246;2022-07-29T06:23:02;57128.34;;;-147.53;100.00
60715;BME280;46564;53.096;8.246;2022-07-29T06:28:05;57128.34;;;-147.53;100.00
60715;BME280;46564;53.096;8.246;2022-07-29T06:33:07;57128.34;;;-147.53;100.00
60715;BME280;46564;53.096;8.246;2022-07-29T06:38:09;57128.34;;;-147.53;100.00
60715;BME280;46564;53.096;8.246;2022-07-29T06:43:36;57128.34;;;-147.53;100.00
60715;BME280;46564;53.096;8.246;2022-07-29T06:48:51;57128.34;;;-147.53;100.00
60715;BME280;46564;53.096;8.246;2022-07-29T06:53:53;57128.34;;;-147.53;100.00
60715;BME280;46564;53.096;8.246;2022-07-29T06:59:04;57128.34;;;-147.53;100.00
60715;BME280;46564;53.096;8.246;2022-07-29T07:04:06;57128.34;;;-147.53;100.00
60715;BME280;46564;53.096;8.246;2022-07-29T07:09:09;57128.34;;;-147.53;100.00
60715;BME280;46564;53.096;8.246;2022-07-29T07:14:11;57128.34;;;-147.53;100.00
60715;BME280;46564;53.096;8.246;2022-07-29T07:19:12;57128.34;;;-147.53;100.00
60715;BME280;46564;53.096;8.246;2022-07-29T07:24:14;57128.34;;;-147.53;100.00
60715;BME280;46564;53.096;8.246;2022-07-29T07:29:17;57128.34;;;-147.53;100.00
60715;BME280;46564;53.096;8.246;2022-07-29T07:37:05;101846.28;;;19.28;69.28
60715;BME280;46564;53.096;8.246;2022-07-29T07:42:07;101977.22;;;19.60;69.03
60715;BME280;46564;53.096;8.246;2022-07-29T07:47:15;102132.28;;;20.01;68.86
60715;BME280;46564;53.096;8.246;2022-07-29T07:52:22;102205.81;;;20.19;68.35
60715;BME280;46564;53.096;8.246;2022-07-29T07:57:24;102387.66;;;20.68;67.99
60715;BME280;46564;53.096;8.246;2022-07-29T08:02:26;102660.22;;;21.34;67.97
60715;BME280;46564;53.096;8.246;2022-07-29T08:07:28;102667.34;;;21.43;67.60
60715;BME280;46564;53.096;8.246;2022-07-29T08:12:31;102748.25;;;21.64;67.27
60715;BME280;46564;53.096;8.246;2022-07-29T08:17:33;102852.28;;;21.93;67.00
60715;BME280;46564;53.096;8.246;2022-07-29T08:22:35;103131.84;;;22.62;66.32
60715;BME280;46564;53.096;8.246;2022-07-29T08:27:37;103043.69;;;22.48;65.88
60715;BME280;46564;53.096;8.246;2022-07-29T08:32:44;102718.94;;;21.75;65.76
60715;BME280;46564;53.096;8.246;2022-07-29T08:37:55;102852.34;;;22.10;65.17
60715;BME280;46564;53.096;8.246;2022-07-29T08:43:04;103311.09;;;23.22;64.88
60715;BME280;46564;53.096;8.246;2022-07-29T08:48:07;103361.06;;;23.40;64.48
60715;BME280;46564;53.096;8.246;2022-07-29T08:53:12;103628.03;;;24.09;64.06
60715;BME280;46564;53.096;8.246;2022-07-29T08:58:14;103693.28;;;24.30;63.72
60715;BME280;46564;53.096;8.246;2022-07-29T09:03:22;103835.50;;;24.70;63.30
60715;BME280;46564;53.096;8.246;2022-07-29T09:08:25;103855.19;;;24.81;62.56
60715;BME280;46564;53.096;8.246;2022-07-29T09:13:27;104019.03;;;25.29;62.15
60715;BME280;46564;53.096;8.246;2022-07-29T09:18:40;104084.47;;;25.51;61.13
60715;BME280;46564;53.096;8.246;2022-07-29T09:29:14;103971.75;;;25.40;60.29
60715;BME280;46564;53.096;8.246;2022-07-29T09:34:21;103914.50;;;25.35;59.88
60715;BME280;46564;53.096;8.246;2022-07-29T09:39:40;104005.81;;;25.62;59.13
60715;BME280;46564;53.096;8.246;2022-07-29T09:44:50;103995.13;;;25.68;58.59
60715;BME280;46564;53.096;8.246;2022-07-29T09:50:04;103990.66;;;25.76;57.88
60715;BME280;46564;53.096;8.246;2022-07-29T09:55:21;103959.38;;;25.75;57.61
60715;BME280;46564;53.096;8.246;2022-07-29T10:06:34;104410.38;;;26.96;56.78
60715;BME280;46564;53.096;8.246;2022-07-29T10:12:09;104282.13;;;26.77;56.26
60715;BME280;46564;53.096;8.246;2022-07-29T10:17:21;104078.59;;;26.36;55.79
60715;BME280;46564;53.096;8.246;2022-07-29T10:22:30;103861.88;;;25.90;55.25
60715;BME280;46564;53.096;8.246;2022-07-29T10:27:53;103871.78;;;25.99;54.70
60715;BME280;46564;53.096;8.246;2022-07-29T10:43:22;103519.34;;;25.29;53.87
60715;BME280;46564;53.096;8.246;2022-07-29T10:48:25;103480.03;;;25.21;53.47
60715;BME280;46564;53.096;8.246;2022-07-29T10:53:49;103638.25;;;25.63;53.30
60715;BME280;46564;53.096;8.246;2022-07-29T11:05:12;103606.06;;;25.66;52.61
60715;BME280;46564;53.096;8.246;2022-07-29T11:15:19;103623.00;;;25.79;52.29
60715;BME280;46564;53.096;8.246;2022-07-29T11:20:46;103573.84;;;25.71;52.03
60715;BME280;46564;53.096;8.246;2022-07-29T11:37:23;103467.44;;;25.61;51.05
60715;BME280;46564;53.096;8.246;2022-07-29T11:47:56;103525.50;;;25.80;50.46
60715;BME280;46564;53.096;8.246;2022-07-29T11:53:24;103445.09;;;25.63;50.37
60715;BME280;46564;53.096;8.246;2022-07-29T11:58:32;103329.84;;;25.40;50.15
60715;BME280;46564;53.096;8.246;2022-07-29T12:03:34;103285.22;;;25.30;50.29
60715;BME280;46564;53.096;8.246;2022-07-29T12:08:41;103252.13;;;25.24;49.69
60715;BME280;46564;53.096;8.246;2022-07-29T12:13:48;103206.59;;;25.18;49.57
60715;BME280;46564;53.096;8.246;2022-07-29T12:18:58;103245.84;;;25.29;49.75
60715;BME280;46564;53.096;8.246;2022-07-29T12:24:00;103095.94;;;24.95;49.53
60715;BME280;46564;53.096;8.246;2022-07-29T12:29:15;103095.06;;;24.97;49.43
60715;BME280;46564;53.096;8.246;2022-07-29T12:34:35;103167.28;;;25.17;49.35
60715;BME280;46564;53.096;8.246;2022-07-29T12:39:38;103208.31;;;25.29;49.23
60715;BME280;46564;53.096;8.246;2022-07-29T12:44:44;103099.47;;;25.04;49.20
60715;BME280;46564;53.096;8.246;2022-07-29T12:49:47;103085.19;;;25.01;48.97
60715;BME280;46564;53.096;8.246;2022-07-29T12:54:49;103115.50;;;25.12;48.97
60715;BME280;46564;53.096;8.246;2022-07-29T13:00:11;103090.50;;;25.07;49.25
60715;BME280;46564;53.096;8.246;2022-07-29T13:05:14;103082.44;;;25.07;48.87
60715;BME280;46564;53.096;8.246;2022-07-29T13:10:18;103100.25;;;25.16;48.87
60715;BME280;46564;53.096;8.246;2022-07-29T13:15:25;103024.50;;;24.97;48.77
60715;BME280;46564;53.096;8.246;2022-07-29T13:20:28;102899.69;;;24.68;48.82
60715;BME280;46564;53.096;8.246;2022-07-29T13:25:36;102831.06;;;24.55;48.68
60715;BME280;46564;53.096;8.246;2022-07-29T13:30:42;102771.38;;;24.40;48.67
60715;BME280;46564;53.096;8.246;2022-07-29T13:35:45;102723.28;;;24.31;48.33
60715;BME280;46564;53.096;8.246;2022-07-29T13:40:47;102709.94;;;24.28;48.25
60715;BME280;46564;53.096;8.246;2022-07-29T13:45:49;102715.25;;;24.31;48.25
60715;BME280;46564;53.096;8.246;2022-07-29T13:50:50;102724.16;;;24.33;48.24
60715;BME280;46564;53.096;8.246;2022-07-29T13:55:52;102729.44;;;24.38;48.16
60715;BME280;46564;53.096;8.246;2022-07-29T14:00:55;102700.09;;;24.30;48.32
60715;BME280;46564;53.096;8.246;2022-07-29T14:05:58;102699.19;;;24.32;47.96
60715;BME280;46564;53.096;8.246;2022-07-29T14:11:01;102644.88;;;24.20;48.18
60715;BME280;46564;53.096;8.246;2022-07-29T14:16:03;102595.06;;;24.06;48.14
60715;BME280;46564;53.096;8.246;2022-07-29T14:21:05;102541.69;;;23.95;48.37
60715;BME280;46564;53.096;8.246;2022-07-29T14:26:07;102513.22;;;23.87;48.36
60715;BME280;46564;53.096;8.246;2022-07-29T14:31:13;102491.88;;;23.80;48.42
60715;BME280;46564;53.096;8.246;2022-07-29T14:36:15;102433.19;;;23.68;48.19
60715;BME280;46564;53.096;8.246;2022-07-29T14:41:17;102430.53;;;23.67;48.28
60715;BME280;46564;53.096;8.246;2022-07-29T14:46:19;102371.91;;;23.51;48.43
60715;BME280;46564;53.096;8.246;2022-07-29T14:51:21;102323.00;;;23.41;48.39
60715;BME280;46564;53.096;8.246;2022-07-29T14:56:25;102271.53;;;23.27;48.55
60715;BME280;46564;53.096;8.246;2022-07-29T15:01:38;102221.81;;;23.14;48.81
60715;BME280;46564;53.096;8.246;2022-07-29T15:06:40;102162.34;;;22.96;48.94
60715;BME280;46564;53.096;8.246;2022-07-29T15:11:42;102057.66;;;22.69;49.30
60715;BME280;46564;53.096;8.246;2022-07-29T15:16:44;101975.25;;;22.45;49.58
60715;BME280;46564;53.096;8.246;2022-07-29T15:21:49;101862.72;;;22.13;50.24
60715;BME280;46564;53.096;8.246;2022-07-29T15:26:51;101820.25;;;21.99;50.51
60715;BME280;46564;53.096;8.246;2022-07-29T15:31:53;101816.75;;;21.93;50.87
60715;BME280;46564;53.096;8.246;2022-07-29T15:36:55;101737.97;;;21.71;51.45
60715;BME280;46564;53.096;8.246;2022-07-29T15:41:57;101695.56;;;21.56;52.10
60715;BME280;46564;53.096;8.246;2022-07-29T15:47:01;101665.44;;;21.48;52.45
60715;BME280;46564;53.096;8.246;2022-07-29T15:52:09;101661.97;;;21.43;52.70
60715;BME280;46564;53.096;8.246;2022-07-29T15:57:12;101623.94;;;21.30;53.49
60715;BME280;46564;53.096;8.246;2022-07-29T16:02:14;101588.66;;;21.17;53.76
60715;BME280;46564;53.096;8.246;2022-07-29T16:07:16;101549.75;;;21.05;54.16
60715;BME280;46564;53.096;8.246;2022-07-29T16:12:18;101529.44;;;20.98;54.35
60715;BME280;46564;53.096;8.246;2022-07-29T16:17:20;101534.78;;;20.96;54.80
60715;BME280;46564;53.096;8.246;2022-07-29T16:22:22;101550.75;;;20.98;55.20
60715;BME280;46564;53.096;8.246;2022-07-29T16:27:24;101517.19;;;20.86;55.43
60715;BME280;46564;53.096;8.246;2022-07-29T16:32:37;101506.59;;;20.81;55.92
60715;BME280;46564;53.096;8.246;2022-07-29T16:37:40;101472.16;;;20.71;55.85
60715;BME280;46564;53.096;8.246;2022-07-29T16:42:41;101440.31;;;20.63;56.47
60715;BME280;46564;53.096;8.246;2022-07-29T16:47:48;101422.69;;;20.54;56.53
60715;BME280;46564;53.096;8.246;2022-07-29T16:52:50;101428.88;;;20.55;56.75
60715;BME280;46564;53.096;8.246;2022-07-29T16:57:52;101447.47;;;20.58;56.80
60715;BME280;46564;53.096;8.246;2022-07-29T17:02:54;101444.84;;;20.56;57.10
60715;BME280;46564;53.096;8.246;2022-07-29T17:07:56;101437.78;;;20.52;57.37
60715;BME280;46564;53.096;8.246;2022-07-29T17:12:59;101419.22;;;20.47;57.39
60715;BME280;46564;53.096;8.246;2022-07-29T17:18:01;101407.78;;;20.42;57.68
60715;BME280;46564;53.096;8.246;2022-07-29T17:23:13;101387.47;;;20.37;58.01
60715;BME280;46564;53.096;8.246;2022-07-29T17:28:15;101403.41;;;20.38;57.88
60715;BME280;46564;53.096;8.246;2022-07-29T17:33:16;101386.63;;;20.35;58.26
60715;BME280;46564;53.096;8.246;2022-07-29T17:38:18;101364.56;;;20.26;58.34
60715;BME280;46564;53.096;8.246;2022-07-29T17:43:22;101357.53;;;20.24;58.16
60715;BME280;46564;53.096;8.246;2022-07-29T17:48:25;101360.22;;;20.22;58.67
60715;BME280;46564;53.096;8.246;2022-07-29T17:53:27;101352.25;;;20.21;58.44
60715;BME280;46564;53.096;8.246;2022-07-29T17:58:29;101370.81;;;20.25;58.70
60715;BME280;46564;53.096;8.246;2022-07-29T18:03:31;101354.03;;;20.20;58.59
60715;BME280;46564;53.096;8.246;2022-07-29T18:08:33;101341.66;;;20.18;58.78
60715;BME280;46564;53.096;8.246;2022-07-29T18:13:35;101323.13;;;20.10;58.67
60715;BME280;46564;53.096;8.246;2022-07-29T18:18:37;101311.63;;;20.09;58.97
60715;BME280;46564;53.096;8.246;2022-07-29T18:23:39;101253.41;;;19.92;59.19
60715;BME280;46564;53.096;8.246;2022-07-29T18:28:41;101215.47;;;19.81;59.31
60715;BME280;46564;53.096;8.246;2022-07-29T18:33:42;101137.84;;;19.57;59.63
60715;BME280;46564;53.096;8.246;2022-07-29T18:38:44;101093.78;;;19.44;59.94
60715;BME280;46564;53.096;8.246;2022-07-29T18:43:46;101106.16;;;19.45;60.14
60715;BME280;46564;53.096;8.246;2022-07-29T18:48:48;101088.53;;;19.39;60.54
60715;BME280;46564;53.096;8.246;2022-07-29T18:53:50;101073.59;;;19.35;60.63
60715;BME280;46564;53.096;8.246;2022-07-29T18:58:52;101083.31;;;19.35;60.91
60715;BME280;46564;53.096;8.246;2022-07-29T19:03:55;101050.69;;;19.27;61.12
60715;BME280;46564;53.096;8.246;2022-07-29T19:08:57;101056.88;;;19.25;61.19
60715;BME280;46564;53.096;8.246;2022-07-29T19:13:58;101044.53;;;19.23;61.48
60715;BME280;46564;53.096;8.246;2022-07-29T19:19:00;101053.41;;;19.22;61.74
60715;BME280;46564;53.096;8.246;2022-07-29T19:24:02;101066.66;;;19.25;61.74
60715;BME280;46564;53.096;8.246;2022-07-29T19:29:08;101079.03;;;19.24;62.29
60715;BME280;46564;53.096;8.246;2022-07-29T19:34:10;101094.00;;;19.29;62.29
60715;BME280;46564;53.096;8.246;2022-07-29T19:39:12;101121.41;;;19.32;62.42
60715;BME280;46564;53.096;8.246;2022-07-29T19:44:15;101114.38;;;19.30;62.26
60715;BME280;46564;53.096;8.246;2022-07-29T19:49:17;101099.38;;;19.25;62.63
60715;BME280;46564;53.096;8.246;2022-07-29T19:54:19;101065.88;;;19.15;62.36
60715;BME280;46564;53.096;8.246;2022-07-29T19:59:21;101020.06;;;19.04;62.59
60715;BME280;46564;53.096;8.246;2022-07-29T20:04:25;100971.56;;;18.91;62.59
60715;BME280;46564;53.096;8.246;2022-07-29T20:09:26;100943.38;;;18.82;62.87
60715;BME280;46564;53.096;8.246;2022-07-29T20:14:28;100923.16;;;18.75;63.10
60715;BME280;46564;53.096;8.246;2022-07-29T20:19:30;100884.47;;;18.62;63.53
60715;BME280;46564;53.096;8.246;2022-07-29T20:24:33;100823.63;;;18.49;63.73
60715;BME280;46564;53.096;8.246;2022-07-29T20:29:35;100817.53;;;18.44;63.48
60715;BME280;46564;53.096;8.246;2022-07-29T20:34:38;100780.56;;;18.35;63.91
60715;BME280;46564;53.096;8.246;2022-07-29T20:39:41;100777.03;;;18.33;64.06
60715;BME280;46564;53.096;8.246;2022-07-29T20:44:43;100768.28;;;18.28;64.15
60715;BME280;46564;53.096;8.246;2022-07-29T20:49:45;100742.81;;;18.19;64.49
60715;BME280;46564;53.096;8.246;2022-07-29T20:54:46;100720.88;;;18.11;64.91
60715;BME280;46564;53.096;8.246;2022-07-29T20:59:49;100705.06;;;18.05;64.69
60715;BME280;46564;53.096;8.246;2022-07-29T21:04:50;100676.91;;;17.97;65.18
60715;BME280;46564;53.096;8.246;2022-07-29T21:09:52;100662.88;;;17.91;65.30
60715;BME280;46564;53.096;8.246;2022-07-29T21:14:54;100637.38;;;17.83;65.62
60715;BME280;46564;53.096;8.246;2022-07-29T21:19:56;100620.66;;;17.78;65.58
60715;BME280;46564;53.096;8.246;2022-07-29T21:24:58;100599.59;;;17.69;65.92
60715;BME280;46564;53.096;8.246;2022-07-29T21:29:59;100560.94;;;17.59;66.20
60715;BME280;46564;53.096;8.246;2022-07-29T21:35:02;100506.44;;;17.45;66.17
60715;BME280;46564;53.096;8.246;2022-07-29T21:40:15;100475.69;;;17.37;66.39
60715;BME280;46564;53.096;8.246;2022-07-29T21:45:17;100446.75;;;17.26;66.92
60715;BME280;46564;53.096;8.246;2022-07-29T21:50:19;100441.50;;;17.23;66.87
60715;BME280;46564;53.096;8.246;2022-07-29T21:55:20;100417.81;;;17.15;67.16
60715;BME280;46564;53.096;8.246;2022-07-29T22:00:25;100366.91;;;17.01;67.47
60715;BME280;46564;53.096;8.246;2022-07-29T22:05:27;100345.00;;;16.94;67.35
60715;BME280;46564;53.096;8.246;2022-07-29T22:10:29;100333.59;;;16.89;67.67
60715;BME280;46564;53.096;8.246;2022-07-29T22:15:31;100335.41;;;16.87;67.78
60715;BME280;46564;53.096;8.246;2022-07-29T22:20:33;100328.34;;;16.84;68.04
60715;BME280;46564;53.096;8.246;2022-07-29T22:25:36;100332.81;;;16.82;68.56
60715;BME280;46564;53.096;8.246;2022-07-29T22:30:37;100317.06;;;16.74;68.52
60715;BME280;46564;53.096;8.246;2022-07-29T22:35:39;100298.63;;;16.71;68.86
60715;BME280;46564;53.096;8.246;2022-07-29T22:40:40;100310.94;;;16.71;69.08
60715;BME280;46564;53.096;8.246;2022-07-29T22:45:44;100323.25;;;16.72;69.06
60715;BME280;46564;53.096;8.246;2022-07-29T22:50:45;100338.22;;;16.74;69.55
60715;BME280;46564;53.096;8.246;2022-07-29T22:55:48;100368.97;;;16.80;69.64
60715;BME280;46564;53.096;8.246;2022-07-29T23:00:49;100364.59;;;16.77;69.75
60715;BME280;46564;53.096;8.246;2022-07-29T23:05:51;100372.56;;;16.76;70.11
60715;BME280;46564;53.096;8.246;2022-07-29T23:10:53;100385.75;;;16.77;70.42
60715;BME280;46564;53.096;8.246;2022-07-29T23:15:55;100393.69;;;16.77;70.46
60715;BME280;46564;53.096;8.246;2022-07-29T23:20:57;100392.81;;;16.78;70.70
60715;BME280;46564;53.096;8.246;2022-07-29T23:25:59;100391.94;;;16.76;71.04
60715;BME280;46564;53.096;8.246;2022-07-29T23:31:01;100385.81;;;16.73;71.25
60715;BME280;46564;53.096;8.246;2022-07-29T23:36:03;100377.94;;;16.70;71.14
60715;BME280;46564;53.096;8.246;2022-07-29T23:41:04;100379.72;;;16.68;71.37
60715;BME280;46564;53.096;8.246;2022-07-29T23:46:09;100369.22;;;16.63;71.58
60715;BME280;46564;53.096;8.246;2022-07-29T23:51:12;100314.78;;;16.50;72.02
60715;BME280;46564;53.096;8.246;2022-07-29T23:56:13;100314.78;;;16.50;72.02
